sensor_id;sensor_type;location;lat;lon;timestamp;pressure;altitude;pressure_sealevel;temperature;humidity
67377;BME280;54261;46.086;6.588;2023-03-04T00:03:57;92724.69;;;5.12;37.99
67377;BME280;54261;46.086;6.588;2023-03-04T00:08:58;92721.59;;;5.35;38.57
67377;BME280;54261;46.086;6.588;2023-03-04T00:14:00;92721.25;;;4.67;38.94
67377;BME280;54261;46.086;6.588;2023-03-04T00:19:02;92719.34;;;4.17;38.41
67377;BME280;54261;46.086;6.588;2023-03-04T00:24:05;92717.59;;;3.19;41.14
67377;BME280;54261;46.086;6.588;2023-03-04T00:29:07;92724.75;;;3.55;40.05
67377;BME280;54261;46.086;6.588;2023-03-04T00:34:09;92733.50;;;2.98;41.63
67377;BME280;54261;46.086;6.588;2023-03-04T00:39:11;92708.00;;;3.80;40.28
67377;BME280;54261;46.086;6.588;2023-03-04T00:44:13;92725.78;;;3.75;39.90
67377;BME280;54261;46.086;6.588;2023-03-04T00:49:15;92725.66;;;4.32;39.61
67377;BME280;54261;46.086;6.588;2023-03-04T00:54:16;92731.00;;;4.26;38.81
67377;BME280;54261;46.086;6.588;2023-03-04T00:59:18;92689.06;;;3.97;38.65
67377;BME280;54261;46.086;6.588;2023-03-04T01:04:20;92716.06;;;4.86;38.39
67377;BME280;54261;46.086;6.588;2023-03-04T01:09:22;92719.94;;;5.09;37.82
67377;BME280;54261;46.086;6.588;2023-03-04T01:14:24;92715.66;;;4.03;38.30
67377;BME280;54261;46.086;6.588;2023-03-04T01:19:26;92725.09;;;4.90;38.73
67377;BME280;54261;46.086;6.588;2023-03-04T01:24:29;92722.34;;;5.06;38.26
67377;BME280;54261;46.086;6.588;2023-03-04T01:29:31;92717.91;;;4.40;37.63
67377;BME280;54261;46.086;6.588;2023-03-04T01:34:33;92698.03;;;4.27;38.71
67377;BME280;54261;46.086;6.588;2023-03-04T01:39:35;92699.03;;;2.83;41.17
67377;BME280;54261;46.086;6.588;2023-03-04T01:44:36;92711.25;;;4.38;39.34
67377;BME280;54261;46.086;6.588;2023-03-04T01:49:39;92712.31;;;4.42;39.02
67377;BME280;54261;46.086;6.588;2023-03-04T01:54:40;92693.38;;;4.54;38.61
67377;BME280;54261;46.086;6.588;2023-03-04T01:59:43;92698.88;;;4.73;38.34
67377;BME280;54261;46.086;6.588;2023-03-04T02:04:45;92684.03;;;4.67;37.99
67377;BME280;54261;46.086;6.588;2023-03-04T02:09:47;92684.03;;;3.91;37.75
67377;BME280;54261;46.086;6.588;2023-03-04T02:14:49;92680.09;;;4.59;38.09
67377;BME280;54261;46.086;6.588;2023-03-04T02:25:10;92679.75;;;4.71;37.71
67377;BME280;54261;46.086;6.588;2023-03-04T02:30:15;92684.34;;;4.60;37.83
67377;BME280;54261;46.086;6.588;2023-03-04T02:35:19;92686.09;;;4.75;37.94
67377;BME280;54261;46.086;6.588;2023-03-04T02:40:30;92665.53;;;4.46;37.84
67377;BME280;54261;46.086;6.588;2023-03-04T02:45:43;92670.22;;;4.99;37.82
67377;BME280;54261;46.086;6.588;2023-03-04T02:50:49;92667.56;;;4.60;37.75
67377;BME280;54261;46.086;6.588;2023-03-04T02:55:51;92669.13;;;4.16;38.29
67377;BME280;54261;46.086;6.588;2023-03-04T03:00:56;92656.69;;;3.95;39.23
67377;BME280;54261;46.086;6.588;2023-03-04T03:06:00;92650.84;;;3.93;39.01
67377;BME280;54261;46.086;6.588;2023-03-04T03:11:02;92658.28;;;4.02;39.30
67377;BME280;54261;46.086;6.588;2023-03-04T03:16:06;92668.63;;;4.08;38.71
67377;BME280;54261;46.086;6.588;2023-03-04T03:21:08;92664.13;;;3.93;38.84
67377;BME280;54261;46.086;6.588;2023-03-04T03:26:11;92655.72;;;3.55;39.74
67377;BME280;54261;46.086;6.588;2023-03-04T03:31:12;92658.59;;;3.79;38.79
67377;BME280;54261;46.086;6.588;2023-03-04T03:36:15;92658.69;;;3.43;39.62
67377;BME280;54261;46.086;6.588;2023-03-04T03:41:16;92658.69;;;3.33;39.66
67377;BME280;54261;46.086;6.588;2023-03-04T03:46:18;92657.91;;;3.37;39.41
67377;BME280;54261;46.086;6.588;2023-03-04T03:51:20;92665.03;;;3.57;39.49
67377;BME280;54261;46.086;6.588;2023-03-04T03:56:22;92662.03;;;3.90;39.26
67377;BME280;54261;46.086;6.588;2023-03-04T04:01:24;92657.66;;;3.23;39.48
67377;BME280;54261;46.086;6.588;2023-03-04T04:06:26;92654.53;;;3.97;39.00
67377;BME280;54261;46.086;6.588;2023-03-04T04:11:28;92661.22;;;3.90;38.88
67377;BME280;54261;46.086;6.588;2023-03-04T04:16:30;92666.34;;;3.55;38.95
67377;BME280;54261;46.086;6.588;2023-03-04T04:21:33;92667.63;;;3.73;39.62
67377;BME280;54261;46.086;6.588;2023-03-04T04:26:35;92669.84;;;3.50;40.07
67377;BME280;54261;46.086;6.588;2023-03-04T04:31:37;92675.13;;;3.35;39.70
67377;BME280;54261;46.086;6.588;2023-03-04T04:36:38;92671.88;;;3.74;39.66
67377;BME280;54261;46.086;6.588;2023-03-04T04:41:42;92663.63;;;3.86;39.28
67377;BME280;54261;46.086;6.588;2023-03-04T04:46:44;92678.06;;;3.02;40.34
67377;BME280;54261;46.086;6.588;2023-03-04T04:51:46;92665.88;;;3.22;40.21
67377;BME280;54261;46.086;6.588;2023-03-04T04:56:48;92673.75;;;3.74;39.96
67377;BME280;54261;46.086;6.588;2023-03-04T05:01:50;92674.88;;;3.36;39.20
67377;BME280;54261;46.086;6.588;2023-03-04T05:06:51;92671.56;;;4.02;39.29
67377;BME280;54261;46.086;6.588;2023-03-04T05:11:53;92676.59;;;3.98;38.72
67377;BME280;54261;46.086;6.588;2023-03-04T05:16:55;92671.53;;;4.12;39.08
67377;BME280;54261;46.086;6.588;2023-03-04T05:21:57;92679.97;;;4.30;38.37
67377;BME280;54261;46.086;6.588;2023-03-04T05:27:00;92672.28;;;4.18;38.30
67377;BME280;54261;46.086;6.588;2023-03-04T05:32:02;92679.03;;;3.84;38.47
67377;BME280;54261;46.086;6.588;2023-03-04T05:37:04;92673.50;;;3.70;38.23
67377;BME280;54261;46.086;6.588;2023-03-04T05:42:06;92678.28;;;3.68;39.18
67377;BME280;54261;46.086;6.588;2023-03-04T05:47:07;92675.25;;;4.16;38.72
67377;BME280;54261;46.086;6.588;2023-03-04T05:52:10;92671.69;;;4.36;39.03
67377;BME280;54261;46.086;6.588;2023-03-04T05:57:11;92676.09;;;4.56;37.93
67377;BME280;54261;46.086;6.588;2023-03-04T06:02:13;92676.81;;;4.17;38.47
67377;BME280;54261;46.086;6.588;2023-03-04T06:07:15;92681.03;;;4.28;37.96
67377;BME280;54261;46.086;6.588;2023-03-04T06:12:17;92681.94;;;3.88;38.21
67377;BME280;54261;46.086;6.588;2023-03-04T06:17:19;92687.94;;;4.30;38.06
67377;BME280;54261;46.086;6.588;2023-03-04T06:22:21;92697.53;;;4.25;38.00
67377;BME280;54261;46.086;6.588;2023-03-04T06:27:23;92702.84;;;4.20;38.66
67377;BME280;54261;46.086;6.588;2023-03-04T06:32:24;92698.16;;;4.57;37.94
67377;BME280;54261;46.086;6.588;2023-03-04T06:37:26;92703.22;;;4.59;37.30
67377;BME280;54261;46.086;6.588;2023-03-04T06:42:28;92702.25;;;4.34;37.28
67377;BME280;54261;46.086;6.588;2023-03-04T06:47:30;92691.53;;;4.49;37.66
67377;BME280;54261;46.086;6.588;2023-03-04T06:52:32;92710.81;;;4.76;36.92
67377;BME280;54261;46.086;6.588;2023-03-04T06:57:34;92714.22;;;4.36;36.95
67377;BME280;54261;46.086;6.588;2023-03-04T07:02:36;92714.31;;;4.00;38.50
67377;BME280;54261;46.086;6.588;2023-03-04T07:07:38;92719.19;;;4.53;37.65
67377;BME280;54261;46.086;6.588;2023-03-04T07:12:40;92723.47;;;4.44;37.12
67377;BME280;54261;46.086;6.588;2023-03-04T07:17:42;92710.53;;;4.82;36.83
67377;BME280;54261;46.086;6.588;2023-03-04T07:22:44;92724.84;;;4.87;36.81
67377;BME280;54261;46.086;6.588;2023-03-04T07:27:46;92731.34;;;5.15;36.54
67377;BME280;54261;46.086;6.588;2023-03-04T07:32:47;92711.31;;;5.23;36.48
67377;BME280;54261;46.086;6.588;2023-03-04T07:37:49;92709.16;;;5.25;36.10
67377;BME280;54261;46.086;6.588;2023-03-04T07:42:53;92724.69;;;4.73;36.90
67377;BME280;54261;46.086;6.588;2023-03-04T07:47:57;92743.84;;;3.00;39.35
67377;BME280;54261;46.086;6.588;2023-03-04T07:52:59;92743.84;;;3.00;40.35
67377;BME280;54261;46.086;6.588;2023-03-04T07:58:01;92716.53;;;3.46;38.59
67377;BME280;54261;46.086;6.588;2023-03-04T08:03:03;92714.34;;;3.84;38.20
67377;BME280;54261;46.086;6.588;2023-03-04T08:08:05;92747.53;;;3.92;38.65
67377;BME280;54261;46.086;6.588;2023-03-04T08:13:08;92761.28;;;2.75;39.65
67377;BME280;54261;46.086;6.588;2023-03-04T08:18:10;92729.53;;;3.37;39.25
67377;BME280;54261;46.086;6.588;2023-03-04T08:23:13;92758.22;;;2.40;40.49
67377;BME280;54261;46.086;6.588;2023-03-04T08:28:15;92763.75;;;2.23;41.07
67377;BME280;54261;46.086;6.588;2023-03-04T08:33:17;92771.72;;;3.23;40.29
67377;BME280;54261;46.086;6.588;2023-03-04T08:38:19;92764.69;;;4.41;38.13
67377;BME280;54261;46.086;6.588;2023-03-04T08:43:22;92771.97;;;4.05;38.46
67377;BME280;54261;46.086;6.588;2023-03-04T08:48:25;92775.06;;;4.33;37.70
67377;BME280;54261;46.086;6.588;2023-03-04T08:53:27;92768.75;;;4.13;37.45
67377;BME280;54261;46.086;6.588;2023-03-04T08:58:29;92781.53;;;3.90;37.68
67377;BME280;54261;46.086;6.588;2023-03-04T09:03:31;92739.56;;;3.92;37.91
67377;BME280;54261;46.086;6.588;2023-03-04T09:08:33;92777.06;;;4.72;37.59
67377;BME280;54261;46.086;6.588;2023-03-04T09:13:35;92774.41;;;4.72;37.20
67377;BME280;54261;46.086;6.588;2023-03-04T09:18:38;92779.41;;;4.03;38.50
67377;BME280;54261;46.086;6.588;2023-03-04T09:23:40;92775.28;;;5.02;37.10
67377;BME280;54261;46.086;6.588;2023-03-04T09:28:42;92767.41;;;5.32;36.13
67377;BME280;54261;46.086;6.588;2023-03-04T09:33:44;92753.56;;;5.99;35.57
67377;BME280;54261;46.086;6.588;2023-03-04T09:38:46;92760.56;;;5.20;35.30
67377;BME280;54261;46.086;6.588;2023-03-04T09:43:49;92757.13;;;3.73;40.48
67377;BME280;54261;46.086;6.588;2023-03-04T09:48:54;92760.47;;;5.71;37.79
67377;BME280;54261;46.086;6.588;2023-03-04T09:54:15;92759.44;;;5.26;35.97
67377;BME280;54261;46.086;6.588;2023-03-04T10:09:44;92762.44;;;7.44;33.93
67377;BME280;54261;46.086;6.588;2023-03-04T10:14:51;92750.38;;;8.13;33.17
67377;BME280;54261;46.086;6.588;2023-03-04T10:36:05;92737.75;;;2.20;43.05
67377;BME280;54261;46.086;6.588;2023-03-04T10:41:16;92710.19;;;4.44;38.31
67377;BME280;54261;46.086;6.588;2023-03-04T10:46:20;92731.47;;;1.78;42.47
67377;BME280;54261;46.086;6.588;2023-03-04T10:51:27;92723.03;;;0.51;46.49
67377;BME280;54261;46.086;6.588;2023-03-04T10:56:31;92723.16;;;2.92;42.20
67377;BME280;54261;46.086;6.588;2023-03-04T11:01:34;92723.69;;;-1.75;51.00
67377;BME280;54261;46.086;6.588;2023-03-04T11:06:39;92691.91;;;-0.37;48.55
67377;BME280;54261;46.086;6.588;2023-03-04T11:11:42;92716.34;;;1.73;46.09
67377;BME280;54261;46.086;6.588;2023-03-04T11:17:00;92701.91;;;0.28;48.28
67377;BME280;54261;46.086;6.588;2023-03-04T11:22:03;92683.28;;;1.76;43.81
67377;BME280;54261;46.086;6.588;2023-03-04T11:27:14;92691.75;;;-0.47;49.94
67377;BME280;54261;46.086;6.588;2023-03-04T11:32:28;92676.31;;;1.59;43.60
67377;BME280;54261;46.086;6.588;2023-03-04T11:37:39;92677.88;;;-0.20;48.08
67377;BME280;54261;46.086;6.588;2023-03-04T12:03:59;92652.34;;;-0.37;50.16
67377;BME280;54261;46.086;6.588;2023-03-04T12:09:59;92653.66;;;2.69;44.26
67377;BME280;54261;46.086;6.588;2023-03-04T12:15:20;92645.31;;;3.84;40.04
67377;BME280;54261;46.086;6.588;2023-03-04T12:20:43;92641.09;;;1.54;44.18
67377;BME280;54261;46.086;6.588;2023-03-04T12:31:13;92628.25;;;0.87;48.44
67377;BME280;54261;46.086;6.588;2023-03-04T12:36:34;92616.06;;;-1.59;52.14
67377;BME280;54261;46.086;6.588;2023-03-04T12:42:12;92623.09;;;-1.48;54.06
67377;BME280;54261;46.086;6.588;2023-03-04T12:52:47;92610.09;;;-0.64;53.45
67377;BME280;54261;46.086;6.588;2023-03-04T12:57:54;92593.16;;;3.28;43.98
67377;BME280;54261;46.086;6.588;2023-03-04T13:13:40;92580.22;;;0.30;49.97
67377;BME280;54261;46.086;6.588;2023-03-04T13:18:42;92578.41;;;5.86;41.93
67377;BME280;54261;46.086;6.588;2023-03-04T13:23:45;92570.16;;;0.92;49.19
67377;BME280;54261;46.086;6.588;2023-03-04T13:34:45;92574.13;;;2.84;47.21
67377;BME280;54261;46.086;6.588;2023-03-04T13:45:34;92566.28;;;6.18;40.68
67377;BME280;54261;46.086;6.588;2023-03-04T13:50:39;92556.50;;;1.69;47.80
67377;BME280;54261;46.086;6.588;2023-03-04T13:55:42;92563.13;;;6.73;37.91
67377;BME280;54261;46.086;6.588;2023-03-04T14:00:50;92552.59;;;3.27;43.54
67377;BME280;54261;46.086;6.588;2023-03-04T14:06:28;92544.16;;;4.31;41.71
67377;BME280;54261;46.086;6.588;2023-03-04T14:11:38;92539.00;;;4.80;42.31
67377;BME280;54261;46.086;6.588;2023-03-04T14:17:15;92554.53;;;6.38;38.97
67377;BME280;54261;46.086;6.588;2023-03-04T14:22:41;92549.41;;;7.83;35.09
67377;BME280;54261;46.086;6.588;2023-03-04T14:27:44;92537.03;;;8.15;35.28
67377;BME280;54261;46.086;6.588;2023-03-04T14:32:46;92543.16;;;4.91;39.79
67377;BME280;54261;46.086;6.588;2023-03-04T14:38:03;92519.06;;;4.77;41.32
67377;BME280;54261;46.086;6.588;2023-03-04T14:43:15;92531.94;;;3.80;42.77
67377;BME280;54261;46.086;6.588;2023-03-04T14:48:27;92506.19;;;5.87;39.90
67377;BME280;54261;46.086;6.588;2023-03-04T14:53:32;92527.78;;;5.66;40.28
67377;BME280;54261;46.086;6.588;2023-03-04T14:58:50;92528.63;;;4.09;42.67
67377;BME280;54261;46.086;6.588;2023-03-04T15:03:56;92509.50;;;4.12;42.91
67377;BME280;54261;46.086;6.588;2023-03-04T15:09:08;92511.66;;;4.74;42.61
67377;BME280;54261;46.086;6.588;2023-03-04T15:14:43;92511.53;;;6.25;40.09
67377;BME280;54261;46.086;6.588;2023-03-04T15:20:19;92499.34;;;4.54;42.11
67377;BME280;54261;46.086;6.588;2023-03-04T15:25:18;92505.28;;;4.00;42.56
67377;BME280;54261;46.086;6.588;2023-03-04T15:30:24;92501.78;;;4.80;41.37
67377;BME280;54261;46.086;6.588;2023-03-04T15:35:30;92500.66;;;4.22;41.93
67377;BME280;54261;46.086;6.588;2023-03-04T15:40:36;92500.28;;;3.43;44.22
67377;BME280;54261;46.086;6.588;2023-03-04T15:45:43;92505.41;;;5.87;39.92
67377;BME280;54261;46.086;6.588;2023-03-04T15:50:56;92494.97;;;4.34;41.76
67377;BME280;54261;46.086;6.588;2023-03-04T15:56:00;92475.00;;;6.78;37.19
67377;BME280;54261;46.086;6.588;2023-03-04T16:01:03;92486.16;;;4.73;40.39
67377;BME280;54261;46.086;6.588;2023-03-04T16:06:08;92491.25;;;6.10;38.49
67377;BME280;54261;46.086;6.588;2023-03-04T16:11:16;92415.19;;;4.93;39.62
67377;BME280;54261;46.086;6.588;2023-03-04T16:16:19;92469.41;;;4.73;40.41
67377;BME280;54261;46.086;6.588;2023-03-04T16:21:22;92479.19;;;3.68;44.13
67377;BME280;54261;46.086;6.588;2023-03-04T16:26:27;92475.47;;;6.80;39.11
67377;BME280;54261;46.086;6.588;2023-03-04T16:31:30;92465.91;;;8.83;35.73
67377;BME280;54261;46.086;6.588;2023-03-04T16:36:34;92490.19;;;9.49;32.95
67377;BME280;54261;46.086;6.588;2023-03-04T16:41:36;92490.38;;;10.20;32.64
67377;BME280;54261;46.086;6.588;2023-03-04T16:46:38;92485.13;;;10.85;31.69
67377;BME280;54261;46.086;6.588;2023-03-04T16:51:47;92486.72;;;10.69;30.29
67377;BME280;54261;46.086;6.588;2023-03-04T16:56:50;92481.75;;;8.70;33.14
67377;BME280;54261;46.086;6.588;2023-03-04T17:01:52;92482.88;;;9.82;32.83
67377;BME280;54261;46.086;6.588;2023-03-04T17:06:54;92484.63;;;10.92;31.60
67377;BME280;54261;46.086;6.588;2023-03-04T17:11:58;92481.75;;;11.15;31.49
67377;BME280;54261;46.086;6.588;2023-03-04T17:17:02;92480.03;;;10.93;31.12
67377;BME280;54261;46.086;6.588;2023-03-04T17:22:04;92478.81;;;10.72;30.26
67377;BME280;54261;46.086;6.588;2023-03-04T17:27:06;92494.78;;;10.33;30.91
67377;BME280;54261;46.086;6.588;2023-03-04T17:32:08;92457.03;;;10.56;30.82
67377;BME280;54261;46.086;6.588;2023-03-04T17:37:10;92502.84;;;10.33;30.92
67377;BME280;54261;46.086;6.588;2023-03-04T17:42:12;92473.81;;;10.18;31.46
67377;BME280;54261;46.086;6.588;2023-03-04T17:47:14;92501.91;;;10.38;31.10
67377;BME280;54261;46.086;6.588;2023-03-04T17:52:16;92508.97;;;10.08;31.86
67377;BME280;54261;46.086;6.588;2023-03-04T17:57:19;92482.09;;;9.90;30.89
67377;BME280;54261;46.086;6.588;2023-03-04T18:02:21;92498.09;;;10.22;30.96
67377;BME280;54261;46.086;6.588;2023-03-04T18:07:23;92472.50;;;10.51;30.45
67377;BME280;54261;46.086;6.588;2023-03-04T18:12:25;92488.50;;;9.62;31.36
67377;BME280;54261;46.086;6.588;2023-03-04T18:17:27;92433.63;;;9.51;31.11
67377;BME280;54261;46.086;6.588;2023-03-04T18:22:29;92463.81;;;9.34;32.28
67377;BME280;54261;46.086;6.588;2023-03-04T18:27:31;92466.59;;;8.65;32.58
67377;BME280;54261;46.086;6.588;2023-03-04T18:32:34;92497.09;;;9.42;32.16
67377;BME280;54261;46.086;6.588;2023-03-04T18:37:52;92493.25;;;9.74;31.76
67377;BME280;54261;46.086;6.588;2023-03-04T18:42:54;92477.19;;;9.34;31.76
67377;BME280;54261;46.086;6.588;2023-03-04T18:47:58;92454.34;;;8.96;32.49
67377;BME280;54261;46.086;6.588;2023-03-04T18:53:00;92491.84;;;9.28;32.66
67377;BME280;54261;46.086;6.588;2023-03-04T18:58:02;92489.78;;;8.70;32.90
67377;BME280;54261;46.086;6.588;2023-03-04T19:03:08;92484.19;;;8.81;32.90
67377;BME280;54261;46.086;6.588;2023-03-04T19:08:12;92489.13;;;9.19;32.51
67377;BME280;54261;46.086;6.588;2023-03-04T19:13:14;92502.78;;;8.86;32.45
67377;BME280;54261;46.086;6.588;2023-03-04T19:18:19;92483.03;;;7.90;33.39
67377;BME280;54261;46.086;6.588;2023-03-04T19:23:21;92498.19;;;7.53;33.95
67377;BME280;54261;46.086;6.588;2023-03-04T19:28:23;92498.66;;;7.83;33.74
67377;BME280;54261;46.086;6.588;2023-03-04T19:33:24;92501.00;;;8.35;33.20
67377;BME280;54261;46.086;6.588;2023-03-04T19:38:31;92483.66;;;7.31;33.69
67377;BME280;54261;46.086;6.588;2023-03-04T19:43:33;92509.91;;;6.63;34.85
67377;BME280;54261;46.086;6.588;2023-03-04T19:48:38;92514.03;;;5.97;35.87
67377;BME280;54261;46.086;6.588;2023-03-04T19:53:40;92513.16;;;5.39;36.65
67377;BME280;54261;46.086;6.588;2023-03-04T19:58:42;92509.66;;;4.26;38.90
67377;BME280;54261;46.086;6.588;2023-03-04T20:03:44;92504.16;;;5.60;37.38
67377;BME280;54261;46.086;6.588;2023-03-04T20:08:46;92493.94;;;4.94;38.38
67377;BME280;54261;46.086;6.588;2023-03-04T20:13:48;92492.88;;;5.19;37.51
67377;BME280;54261;46.086;6.588;2023-03-04T20:18:50;92478.91;;;5.95;36.64
67377;BME280;54261;46.086;6.588;2023-03-04T20:23:52;92435.13;;;4.12;38.82
67377;BME280;54261;46.086;6.588;2023-03-04T20:28:54;92503.25;;;4.62;38.62
67377;BME280;54261;46.086;6.588;2023-03-04T20:33:57;92478.03;;;4.30;38.97
67377;BME280;54261;46.086;6.588;2023-03-04T20:39:00;92506.75;;;4.22;39.64
67377;BME280;54261;46.086;6.588;2023-03-04T20:44:05;92515.59;;;4.52;39.06
67377;BME280;54261;46.086;6.588;2023-03-04T20:49:11;92511.31;;;5.35;38.03
67377;BME280;54261;46.086;6.588;2023-03-04T20:54:13;92512.91;;;5.60;37.32
67377;BME280;54261;46.086;6.588;2023-03-04T20:59:15;92514.84;;;6.17;36.83
67377;BME280;54261;46.086;6.588;2023-03-04T21:04:18;92521.03;;;5.93;36.36
67377;BME280;54261;46.086;6.588;2023-03-04T21:09:21;92504.47;;;6.35;35.63
67377;BME280;54261;46.086;6.588;2023-03-04T21:14:27;92503.44;;;3.96;39.93
67377;BME280;54261;46.086;6.588;2023-03-04T21:19:32;92497.03;;;5.74;37.10
67377;BME280;54261;46.086;6.588;2023-03-04T21:24:34;92521.44;;;5.62;36.48
67377;BME280;54261;46.086;6.588;2023-03-04T21:29:37;92507.22;;;5.48;36.10
67377;BME280;54261;46.086;6.588;2023-03-04T21:34:41;92512.75;;;6.14;35.74
67377;BME280;54261;46.086;6.588;2023-03-04T21:39:44;92496.69;;;4.54;38.92
67377;BME280;54261;46.086;6.588;2023-03-04T21:44:50;92489.25;;;5.59;37.71
67377;BME280;54261;46.086;6.588;2023-03-04T21:49:52;92487.28;;;4.67;38.03
67377;BME280;54261;46.086;6.588;2023-03-04T21:54:54;92489.22;;;4.86;38.90
67377;BME280;54261;46.086;6.588;2023-03-04T21:59:56;92482.97;;;3.96;39.57
67377;BME280;54261;46.086;6.588;2023-03-04T22:04:58;92472.91;;;3.98;39.06
67377;BME280;54261;46.086;6.588;2023-03-04T22:10:00;92475.72;;;4.52;38.34
67377;BME280;54261;46.086;6.588;2023-03-04T22:15:04;92469.03;;;3.75;40.03
67377;BME280;54261;46.086;6.588;2023-03-04T22:20:06;92463.59;;;4.41;38.45
67377;BME280;54261;46.086;6.588;2023-03-04T22:25:08;92465.63;;;4.49;37.75
67377;BME280;54261;46.086;6.588;2023-03-04T22:30:10;92467.13;;;5.15;36.97
67377;BME280;54261;46.086;6.588;2023-03-04T22:35:16;92462.06;;;5.37;36.96
67377;BME280;54261;46.086;6.588;2023-03-04T22:40:18;92462.28;;;4.68;36.94
67377;BME280;54261;46.086;6.588;2023-03-04T22:45:20;92462.22;;;4.73;36.79
67377;BME280;54261;46.086;6.588;2023-03-04T22:50:22;92458.00;;;4.96;36.84
67377;BME280;54261;46.086;6.588;2023-03-04T22:55:24;92433.31;;;4.02;37.71
67377;BME280;54261;46.086;6.588;2023-03-04T23:00:28;92459.19;;;4.55;37.41
67377;BME280;54261;46.086;6.588;2023-03-04T23:05:30;92454.75;;;4.16;37.99
67377;BME280;54261;46.086;6.588;2023-03-04T23:10:32;92459.69;;;4.28;38.38
67377;BME280;54261;46.086;6.588;2023-03-04T23:15:34;92457.06;;;4.58;38.02
67377;BME280;54261;46.086;6.588;2023-03-04T23:20:36;92433.34;;;3.52;39.22
67377;BME280;54261;46.086;6.588;2023-03-04T23:25:42;92453.84;;;2.65;40.85
67377;BME280;54261;46.086;6.588;2023-03-04T23:30:46;92463.03;;;4.09;38.14
67377;BME280;54261;46.086;6.588;2023-03-04T23:35:48;92465.16;;;4.42;37.74
67377;BME280;54261;46.086;6.588;2023-03-04T23:40:50;92458.56;;;3.99;39.62
67377;BME280;54261;46.086;6.588;2023-03-04T23:45:52;92463.53;;;4.46;38.93
67377;BME280;54261;46.086;6.588;2023-03-04T23:50:54;92462.97;;;4.20;38.19
67377;BME280;54261;46.086;6.588;2023-03-04T23:55:55;92458.09;;;4.86;37.73
